Time;durP1;ratioP1;P1;durP2;ratioP2;P2;SDS_P1;SDS_P2;PMS_P1;PMS_P2;Temp;Humidity;BMP_temperature;BMP_pressure;BME280_temperature;BME280_humidity;BME280_pressure;Samples;Min_cycle;Max_cycle;Signal;HPM_P1;HPM_P2
2022/10/21 00:00:53;;;;;;;33.88;8.13;;;;;;;;;;5056630;28;20031;-68
2022/10/21 00:03:19;;;;;;;28.38;8.15;;;;;;;;;;5063387;28;20028;-68
2022/10/21 00:05:46;;;;;;;36.90;9.27;;;;;;;;;;5065787;28;20028;-68
2022/10/21 00:08:12;;;;;;;31.83;8.98;;;;;;;;;;5063860;28;20668;-68
2022/10/21 00:10:38;;;;;;;;;;;;;;;;;;5061249;28;20037;-67
2022/10/21 00:13:04;;;;;;;34.10;8.90;;;;;;;;;;5068251;28;19943;-67
2022/10/21 00:15:30;;;;;;;29.83;8.35;;;;;;;;;;5065985;28;20067;-66
2022/10/21 00:17:56;;;;;;;;;;;;;;;;;;5066647;28;20342;-67
2022/10/21 00:20:22;;;;;;;30.83;10.55;;;;;;;;;;5070012;28;20417;-68
2022/10/21 00:22:48;;;;;;;;;;;;;;;;;;5067695;28;20143;-68
2022/10/21 00:25:14;;;;;;;30.73;9.82;;;;;;;;;;5064295;28;19938;-67
2022/10/21 00:27:40;;;;;;;34.28;9.43;;;;;;;;;;5063850;28;20043;-67
2022/10/21 00:30:06;;;;;;;;;;;;;;;;;;5068774;28;20028;-67
2022/10/21 00:32:32;;;;;;;36.63;10.50;;;;;;;;;;5064160;28;20231;-68
2022/10/21 00:34:58;;;;;;;33.28;9.93;;;;;;;;;;5059318;28;20453;-67
2022/10/21 00:37:24;;;;;;;38.00;10.10;;;;;;;;;;5064885;28;20055;-67
2022/10/21 00:39:50;;;;;;;;;;;;;;;;;;5062313;28;20035;-67
2022/10/21 00:42:17;;;;;;;39.10;10.45;;;;;;;;;;5065140;28;20680;-67
2022/10/21 00:45:00;;;;;;;35.88;9.93;;;;;;;;;;5062960;28;20032;-67
2022/10/21 00:47:26;;;;;;;36.17;9.45;;;;;;;;;;5061903;28;20024;-67
2022/10/21 00:49:52;;;;;;;;;;;;;;;;;;5066921;28;20038;-67
2022/10/21 00:52:21;;;;;;;30.33;9.27;;;;;;;;;;5064923;28;19912;-67
2022/10/21 00:54:49;;;;;;;34.05;10.38;;;;;;;;;;5060939;28;20546;-67
2022/10/21 00:57:17;;;;;;;38.80;9.93;;;;;;;;;;5070282;28;20115;-68
2022/10/21 00:59:46;;;;;;;28.50;9.32;;;;;;;;;;5055991;28;20644;-67
2022/10/21 01:02:12;;;;;;;32.90;9.45;;;;;;;;;;5065392;28;20062;-68
2022/10/21 01:04:38;;;;;;;;;;;;;;;;;;5062525;28;20024;-67
2022/10/21 01:07:05;;;;;;;39.67;11.25;;;;;;;;;;5069670;28;19919;-67
2022/10/21 01:09:31;;;;;;;39.00;11.20;;;;;;;;;;5067014;28;20159;-68
2022/10/21 01:11:58;;;;;;;37.63;11.70;;;;;;;;;;5059595;27;20032;-67
2022/10/21 01:14:42;;;;;;;38.55;12.65;;;;;;;;;;5067073;28;20058;-67
2022/10/21 01:17:27;;;;;;;37.63;11.40;;;;;;;;;;5063653;28;20040;-68
2022/10/21 01:19:59;;;;;;;48.17;12.57;;;;;;;;;;5058226;28;20032;-68
2022/10/21 01:22:28;;;;;;;36.45;11.07;;;;;;;;;;5060164;28;20029;-67
2022/10/21 01:25:23;;;;;;;35.30;10.95;;;;;;;;;;5056966;28;20528;-68
2022/10/21 01:27:55;;;;;;;33.20;10.98;;;;;;;;;;5064238;28;20055;-67
2022/10/21 01:30:27;;;;;;;37.20;11.02;;;;;;;;;;5064989;28;20027;-68
2022/10/21 01:42:50;;;;;;;32.97;9.93;;;;;;;;;;5034451;28;20361;-68
2022/10/21 01:45:23;;;;;;;32.38;10.20;;;;;;;;;;5070047;28;20059;-69
2022/10/21 01:47:52;;;;;;;40.45;10.57;;;;;;;;;;5064043;28;20119;-67
2022/10/21 01:50:20;;;;;;;34.60;11.05;;;;;;;;;;5059335;28;20032;-67
2022/10/21 01:52:48;;;;;;;35.30;10.90;;;;;;;;;;5059168;28;20024;-67
2022/10/21 01:55:17;;;;;;;42.42;10.90;;;;;;;;;;5063576;28;20036;-68
2022/10/21 01:57:45;;;;;;;41.33;10.82;;;;;;;;;;5059774;28;20639;-68
2022/10/21 02:00:12;;;;;;;31.67;9.50;;;;;;;;;;5063497;28;20553;-68
2022/10/21 02:02:40;;;;;;;33.35;10.23;;;;;;;;;;5058903;28;20044;-68
2022/10/21 02:05:09;;;;;;;35.63;10.25;;;;;;;;;;5058725;28;20024;-68
2022/10/21 02:07:35;;;;;;;36.28;9.27;;;;;;;;;;5064253;28;20047;-68
2022/10/21 02:10:01;;;;;;;39.03;10.48;;;;;;;;;;5066256;28;20643;-68
2022/10/21 02:12:27;;;;;;;;;;;;;;;;;;5067988;28;20035;-68
2022/10/21 02:14:54;;;;;;;38.40;10.30;;;;;;;;;;5062545;28;19916;-68
2022/10/21 02:17:21;;;;;;;35.47;11.20;;;;;;;;;;5070785;28;20039;-67
2022/10/21 02:19:47;;;;;;;42.22;10.75;;;;;;;;;;5057622;28;20431;-68
2022/10/21 02:22:16;;;;;;;37.45;10.57;;;;;;;;;;5064415;28;20150;-68
2022/10/21 02:24:45;;;;;;;34.75;10.38;;;;;;;;;;5058605;28;20828;-69
2022/10/21 02:27:11;;;;;;;38.95;10.32;;;;;;;;;;5061502;28;20058;-68
2022/10/21 02:29:39;;;;;;;32.83;10.07;;;;;;;;;;5060804;28;20054;-68
2022/10/21 02:32:05;;;;;;;41.67;10.43;;;;;;;;;;5061466;28;20112;-68
2022/10/21 02:34:31;;;;;;;;;;;;;;;;;;5061971;28;20035;-68
2022/10/21 02:37:10;;;;;;;38.50;10.18;;;;;;;;;;5061352;28;19912;-67
2022/10/21 02:39:41;;;;;;;38.05;10.18;;;;;;;;;;5059900;28;20040;-67
2022/10/21 02:42:09;;;;;;;36.25;9.48;;;;;;;;;;5052563;28;20035;-68
2022/10/21 02:44:36;;;;;;;31.42;8.88;;;;;;;;;;5056023;28;20048;-69
2022/10/21 02:47:02;;;;;;;;;;;;;;;;;;5068581;28;20051;-68
2022/10/21 02:49:28;;;;;;;31.48;9.30;;;;;;;;;;5059911;28;19999;-68
2022/10/21 02:51:54;;;;;;;;;;;;;;;;;;5063120;28;20530;-67
2022/10/21 02:54:20;;;;;;;38.70;10.07;;;;;;;;;;5062415;28;19916;-67
2022/10/21 02:56:46;;;;;;;36.15;9.35;;;;;;;;;;5066715;28;20071;-68
2022/10/21 02:59:12;;;;;;;;;;;;;;;;;;5069480;28;20039;-68
2022/10/21 03:01:38;;;;;;;31.65;9.48;;;;;;;;;;5063721;28;19920;-68
2022/10/21 03:04:04;;;;;;;;;;;;;;;;;;5063203;28;20654;-68
2022/10/21 03:06:30;;;;;;;35.95;9.07;;;;;;;;;;5063551;28;19999;-68
2022/10/21 03:08:56;;;;;;;;;;;;;;;;;;5062294;28;20171;-67
2022/10/21 03:11:22;;;;;;;32.85;9.57;;;;;;;;;;5073394;28;19914;-68
2022/10/21 03:13:48;;;;;;;;;;;;;;;;;;5058614;28;20464;-67
2022/10/21 03:16:14;;;;;;;36.78;9.98;;;;;;;;;;5057585;28;19916;-67
2022/10/21 03:18:40;;;;;;;31.77;9.80;;;;;;;;;;5061097;28;20082;-67
2022/10/21 03:21:06;;;;;;;;;;;;;;;;;;5068247;28;20101;-67
2022/10/21 03:23:32;;;;;;;38.70;9.45;;;;;;;;;;5069399;28;20026;-67
2022/10/21 03:25:58;;;;;;;;;;;;;;;;;;5061814;28;20036;-67
2022/10/21 03:28:24;;;;;;;39.42;10.45;;;;;;;;;;5066581;28;19915;-68
2022/10/21 03:30:50;;;;;;;37.35;10.70;;;;;;;;;;5063226;28;20465;-68
2022/10/21 03:33:16;;;;;;;;;;;;;;;;;;5064348;28;20024;-67
2022/10/21 03:35:42;;;;;;;39.33;10.50;;;;;;;;;;5059002;28;19937;-68
2022/10/21 03:38:08;;;;;;;;;;;;;;;;;;5066387;28;20444;-67
2022/10/21 03:40:34;;;;;;;40.42;10.80;;;;;;;;;;5068672;28;19937;-68
2022/10/21 03:43:00;;;;;;;35.65;11.25;;;;;;;;;;5066876;28;20045;-67
2022/10/21 03:45:26;;;;;;;;;;;;;;;;;;5074208;28;20020;-66
2022/10/21 03:47:52;;;;;;;30.52;10.18;;;;;;;;;;5063662;28;19912;-66
2022/10/21 03:50:19;;;;;;;39.42;11.60;;;;;;;;;;5070603;28;20058;-69
2022/10/21 03:52:45;;;;;;;39.20;11.40;;;;;;;;;;5067976;28;20493;-66
2022/10/21 03:55:11;;;;;;;31.23;11.15;;;;;;;;;;5077054;28;20146;-67
2022/10/21 03:57:37;;;;;;;;;;;;;;;;;;5062785;28;21719;-69
2022/10/21 04:00:04;;;;;;;28.90;11.23;;;;;;;;;;5069309;28;20361;-67
2022/10/21 04:02:30;;;;;;;33.88;12.25;;;;;;;;;;5065969;28;20036;-70
2022/10/21 04:04:56;;;;;;;;;;;;;;;;;;5067253;28;20331;-68
2022/10/21 04:07:22;;;;;;;36.58;12.32;;;;;;;;;;5070036;28;20012;-69
2022/10/21 04:09:48;;;;;;;;;;;;;;;;;;5070719;28;20093;-68
2022/10/21 04:12:14;;;;;;;37.15;13.43;;;;;;;;;;5063537;28;19916;-67
2022/10/21 04:14:40;;;;;;;;;;;;;;;;;;5069750;28;20031;-67
2022/10/21 04:17:06;;;;;;;43.45;15.38;;;;;;;;;;5066704;28;20277;-67
2022/10/21 04:19:32;;;;;;;;;;;;;;;;;;5072927;28;20036;-66
2022/10/21 04:21:58;;;;;;;46.47;15.02;;;;;;;;;;5063071;28;19916;-67
2022/10/21 04:24:24;;;;;;;;;;;;;;;;;;5065134;28;20756;-66
2022/10/21 04:26:50;;;;;;;43.58;13.88;;;;;;;;;;5062406;28;19978;-65
2022/10/21 04:29:16;;;;;;;;;;;;;;;;;;5067953;28;20281;-66
2022/10/21 04:31:42;;;;;;;30.85;12.48;;;;;;;;;;5063785;28;19912;-66
2022/10/21 04:34:08;;;;;;;;;;;;;;;;;;5067363;28;20114;-66
2022/10/21 04:36:34;;;;;;;34.05;13.05;;;;;;;;;;5067511;28;19912;-67
2022/10/21 04:39:00;;;;;;;;;;;;;;;;;;5067552;28;20036;-66
2022/10/21 04:41:27;;;;;;;32.05;12.88;;;;;;;;;;5061904;28;20436;-66
2022/10/21 04:43:53;;;;;;;39.55;13.93;;;;;;;;;;5062348;28;20569;-66
2022/10/21 04:46:19;;;;;;;;;;;;;;;;;;5062820;28;20423;-66
2022/10/21 04:48:45;;;;;;;38.80;15.18;;;;;;;;;;5059680;28;19919;-66
2022/10/21 04:51:11;;;;;;;;;;;;;;;;;;5064646;28;20020;-68
2022/10/21 04:53:37;;;;;;;35.28;15.00;;;;;;;;;;5061042;28;19919;-66
2022/10/21 04:56:03;;;;;;;;;;;;;;;;;;5067229;28;20540;-66
2022/10/21 04:58:29;;;;;;;34.88;15.20;;;;;;;;;;5066514;28;20030;-67
2022/10/21 05:00:55;;;;;;;;;;;;;;;;;;5060302;28;20032;-67
2022/10/21 05:03:21;;;;;;;45.78;17.38;;;;;;;;;;5066867;28;19923;-66
2022/10/21 05:05:47;;;;;;;;;;;;;;;;;;5063965;28;20036;-66
2022/10/21 05:08:13;;;;;;;42.22;16.02;;;;;;;;;;5063664;28;19936;-66
2022/10/21 05:10:39;;;;;;;;;;;;;;;;;;5070697;28;20032;-66
2022/10/21 05:13:08;;;;;;;46.58;17.90;;;;;;;;;;5068502;28;19919;-67
2022/10/21 05:15:35;;;;;;;54.78;17.10;;;;;;;;;;5070032;28;20141;-66
2022/10/21 05:18:01;;;;;;;;;;;;;;;;;;5077090;28;20027;-67
2022/10/21 05:20:27;;;;;;;36.97;12.55;;;;;;;;;;5069100;28;19911;-68
2022/10/21 05:22:53;;;;;;;;;;;;;;;;;;5068571;28;20580;-66
2022/10/21 05:25:19;;;;;;;37.92;12.68;;;;;;;;;;5066421;28;20015;-66
2022/10/21 05:27:45;;;;;;;41.50;13.02;;;;;;;;;;5065024;28;20035;-66
2022/10/21 05:30:11;;;;;;;;;;;;;;;;;;5075516;28;20035;-67
2022/10/21 05:32:37;;;;;;;41.03;14.93;;;;;;;;;;5066845;28;19911;-67
2022/10/21 05:35:04;;;;;;;48.55;16.45;;;;;;;;;;5073524;28;20085;-67
2022/10/21 05:37:30;;;;;;;44.40;15.73;;;;;;;;;;5064942;28;20791;-67
2022/10/21 05:39:56;;;;;;;;;;;;;;;;;;5055806;28;20036;-66
2022/10/21 05:42:22;;;;;;;50.67;17.30;;;;;;;;;;5062145;28;20592;-66
2022/10/21 05:44:48;;;;;;;39.42;14.93;;;;;;;;;;5061732;28;20032;-68
2022/10/21 05:47:14;;;;;;;;;;;;;;;;;;5066160;28;20115;-68
2022/10/21 05:49:40;;;;;;;48.63;16.10;;;;;;;;;;5055282;28;20315;-66
2022/10/21 05:52:06;;;;;;;40.92;14.98;;;;;;;;;;5062825;28;20035;-66
2022/10/21 05:54:32;;;;;;;;;;;;;;;;;;5061398;28;20031;-66
2022/10/21 05:56:58;;;;;;;47.97;15.45;;;;;;;;;;5056039;28;19920;-67
2022/10/21 05:59:25;;;;;;;;;;;;;;;;;;5068263;28;20032;-66
2022/10/21 06:01:51;;;;;;;;;;;;;;;;;;5066318;28;20472;-66
2022/10/21 06:04:17;;;;;;;62.60;18.63;;;;;;;;;;5064405;28;19912;-67
2022/10/21 06:06:44;;;;;;;60.47;18.35;;;;;;;;;;5062016;28;20039;-67
2022/10/21 06:09:10;;;;;;;47.97;18.38;;;;;;;;;;5062990;28;20565;-67
2022/10/21 06:11:36;;;;;;;;;;;;;;;;;;5058277;28;20485;-67
2022/10/21 06:14:02;;;;;;;45.67;17.80;;;;;;;;;;5057949;28;20417;-66
2022/10/21 06:16:28;;;;;;;52.63;18.02;;;;;;;;;;5063795;28;20379;-66
2022/10/21 06:18:54;;;;;;;;;;;;;;;;;;5060663;28;20390;-66
2022/10/21 06:21:20;;;;;;;52.00;19.67;;;;;;;;;;5057616;28;19973;-66
2022/10/21 06:23:46;;;;;;;47.67;19.45;;;;;;;;;;5051725;28;20043;-67
2022/10/21 06:26:12;;;;;;;;;;;;;;;;;;5057580;28;20012;-67
2022/10/21 06:28:40;;;;;;;32.50;15.35;;;;;;;;;;5058620;28;19969;-66
2022/10/21 06:31:07;;;;;;;38.42;15.30;;;;;;;;;;5061691;28;20112;-66
2022/10/21 06:33:34;;;;;;;31.80;15.00;;;;;;;;;;5059373;28;20024;-67
2022/10/21 06:36:00;;;;;;;35.05;15.18;;;;;;;;;;5058432;28;21122;-66
2022/10/21 06:38:26;;;;;;;;;;;;;;;;;;5056639;28;20029;-67
2022/10/21 06:40:52;;;;;;;33.10;14.40;;;;;;;;;;5056177;28;19919;-69
2022/10/21 06:43:19;;;;;;;30.98;15.05;;;;;;;;;;5057371;28;20079;-66
2022/10/21 06:45:45;;;;;;;29.52;13.65;;;;;;;;;;5056832;28;20394;-67
2022/10/21 06:48:12;;;;;;;27.35;12.48;;;;;;;;;;5061782;28;20023;-67
2022/10/21 06:50:38;;;;;;;28.83;12.18;;;;;;;;;;5061603;28;20023;-65
2022/10/21 06:53:04;;;;;;;;;;;;;;;;;;5070570;28;20580;-68
2022/10/21 06:55:31;;;;;;;34.53;14.18;;;;;;;;;;5063476;28;19916;-66
2022/10/21 06:57:58;;;;;;;29.90;12.40;;;;;;;;;;5051911;28;20364;-68
2022/10/21 07:00:24;;;;;;;40.88;13.38;;;;;;;;;;5064035;28;20572;-66
2022/10/21 07:02:50;;;;;;;;;;;;;;;;;;5058970;28;20541;-68
2022/10/21 07:05:16;;;;;;;29.02;11.38;;;;;;;;;;5062813;28;19919;-66
2022/10/21 07:07:42;;;;;;;30.02;11.35;;;;;;;;;;5056280;28;20028;-66
2022/10/21 07:10:08;;;;;;;;;;;;;;;;;;5062864;28;20032;-67
2022/10/21 07:12:35;;;;;;;28.45;11.10;;;;;;;;;;5064425;28;19912;-67
2022/10/21 07:15:01;;;;;;;39.60;11.52;;;;;;;;;;5061958;28;20389;-67
2022/10/21 07:17:27;;;;;;;;;;;;;;;;;;5064047;28;20028;-67
2022/10/21 07:19:53;;;;;;;30.17;10.55;;;;;;;;;;5063619;28;19923;-68
2022/10/21 07:22:19;;;;;;;;;;;;;;;;;;5068890;28;20913;-67
2022/10/21 07:24:45;;;;;;;29.42;9.40;;;;;;;;;;5061230;28;19917;-67
2022/10/21 07:27:11;;;;;;;35.85;11.02;;;;;;;;;;5061861;28;20446;-66
2022/10/21 07:29:37;;;;;;;28.67;10.15;;;;;;;;;;5069890;28;20032;-66
2022/10/21 07:32:03;;;;;;;31.83;10.30;;;;;;;;;;5066306;28;20334;-66
2022/10/21 07:34:29;;;;;;;34.83;11.60;;;;;;;;;;5058409;28;20495;-66
2022/10/21 07:36:56;;;;;;;41.72;12.82;;;;;;;;;;5059234;28;21513;-66
2022/10/21 07:39:24;;;;;;;38.03;12.07;;;;;;;;;;5066244;28;20040;-68
2022/10/21 07:41:51;;;;;;;31.17;11.90;;;;;;;;;;5068647;28;20504;-66
2022/10/21 07:44:17;;;;;;;36.17;12.02;;;;;;;;;;5064506;28;20044;-67
2022/10/21 07:46:44;;;;;;;37.78;12.00;;;;;;;;;;5059793;28;20024;-66
2022/10/21 07:49:11;;;;;;;33.75;11.70;;;;;;;;;;5063800;28;20032;-65
2022/10/21 07:51:38;;;;;;;33.40;11.90;;;;;;;;;;5064212;28;20028;-66
2022/10/21 07:54:04;;;;;;;39.42;13.52;;;;;;;;;;5063403;28;20328;-68
2022/10/21 07:56:31;;;;;;;29.40;11.98;;;;;;;;;;5070763;28;20683;-69
2022/10/21 07:58:58;;;;;;;32.65;12.70;;;;;;;;;;5064540;28;20648;-68
2022/10/21 08:01:24;;;;;;;31.85;11.65;;;;;;;;;;5067197;28;20531;-66
2022/10/21 08:03:52;;;;;;;27.90;10.20;;;;;;;;;;5074699;28;20458;-66
2022/10/21 08:06:18;;;;;;;34.83;11.88;;;;;;;;;;5078527;28;20573;-68
2022/10/21 08:08:44;;;;;;;33.40;12.20;;;;;;;;;;5059244;28;20231;-70
2022/10/21 08:11:11;;;;;;;38.92;12.48;;;;;;;;;;5072878;28;20469;-67
2022/10/21 08:13:40;;;;;;;34.00;12.05;;;;;;;;;;5070741;28;20031;-66
2022/10/21 08:16:06;;;;;;;32.10;10.63;;;;;;;;;;5071510;28;20020;-68
2022/10/21 08:18:33;;;;;;;32.38;10.57;;;;;;;;;;5073992;28;20032;-66
2022/10/21 08:21:01;;;;;;;36.63;10.48;;;;;;;;;;5064432;28;20024;-66
2022/10/21 08:23:27;;;;;;;37.92;11.57;;;;;;;;;;5064551;28;20043;-67
2022/10/21 08:25:55;;;;;;;38.13;11.55;;;;;;;;;;5061397;28;20028;-67
2022/10/21 08:28:21;;;;;;;32.15;9.82;;;;;;;;;;5066416;28;20973;-67
2022/10/21 08:30:48;;;;;;;37.15;11.63;;;;;;;;;;5060886;28;20024;-67
2022/10/21 08:33:14;;;;;;;34.35;10.57;;;;;;;;;;5071150;28;20515;-67
2022/10/21 08:35:41;;;;;;;35.05;10.00;;;;;;;;;;5061504;28;20437;-67
2022/10/21 08:38:07;;;;;;;30.02;10.27;;;;;;;;;;5069025;28;20590;-67
2022/10/21 08:40:38;;;;;;;34.95;9.80;;;;;;;;;;5066539;28;20038;-67
2022/10/21 08:43:08;;;;;;;31.52;10.25;;;;;;;;;;5072526;28;20035;-67
2022/10/21 08:45:38;;;;;;;24.60;8.50;;;;;;;;;;5067933;28;20492;-67
2022/10/21 08:48:06;;;;;;;37.63;10.45;;;;;;;;;;5062878;28;20024;-67
2022/10/21 08:50:38;;;;;;;31.75;9.70;;;;;;;;;;5064066;28;20151;-68
2022/10/21 08:53:06;;;;;;;36.17;10.48;;;;;;;;;;5063706;28;20032;-67
2022/10/21 08:55:40;;;;;;;37.72;10.13;;;;;;;;;;5063694;28;20134;-68
2022/10/21 08:58:12;;;;;;;38.03;10.75;;;;;;;;;;5065015;28;20557;-67
2022/10/21 09:00:50;;;;;;;30.33;9.80;;;;;;;;;;5066649;28;20906;-67
2022/10/21 09:03:34;;;;;;;31.48;9.95;;;;;;;;;;5058128;28;20047;-68
2022/10/21 09:06:06;;;;;;;31.38;10.52;;;;;;;;;;5064527;28;20604;-66
2022/10/21 09:08:33;;;;;;;29.33;9.30;;;;;;;;;;5060318;28;20158;-69
2022/10/21 09:11:08;;;;;;;33.95;10.10;;;;;;;;;;5064508;28;20035;-67
2022/10/21 09:13:53;;;;;;;34.30;10.17;;;;;;;;;;5065403;28;20040;-69
2022/10/21 09:16:23;;;;;;;31.50;9.25;;;;;;;;;;5067752;28;20163;-68
2022/10/21 09:18:52;;;;;;;33.53;9.27;;;;;;;;;;5063583;28;20283;-67
2022/10/21 09:21:28;;;;;;;30.48;9.52;;;;;;;;;;5064629;28;20028;-66
2022/10/21 09:24:01;;;;;;;30.83;9.05;;;;;;;;;;5064463;28;20036;-69
2022/10/21 09:26:41;;;;;;;30.75;9.63;;;;;;;;;;5063600;28;20028;-68
2022/10/21 09:29:26;;;;;;;32.53;9.55;;;;;;;;;;5068427;28;20035;-67
2022/10/21 09:31:52;;;;;;;30.88;10.07;;;;;;;;;;5061650;28;20450;-70
2022/10/21 09:34:27;;;;;;;27.67;9.45;;;;;;;;;;5060218;28;20048;-67
2022/10/21 09:36:54;;;;;;;26.80;9.25;;;;;;;;;;5057398;28;20035;-67
2022/10/21 09:39:40;;;;;;;34.20;10.55;;;;;;;;;;5065833;28;20443;-67
2022/10/21 09:42:09;;;;;;;28.45;10.23;;;;;;;;;;5064980;28;20028;-67
2022/10/21 09:44:36;;;;;;;31.67;9.98;;;;;;;;;;5063179;28;20682;-67
2022/10/21 09:47:06;;;;;;;27.42;8.75;;;;;;;;;;5063724;28;20131;-67
2022/10/21 09:49:36;;;;;;;33.63;9.48;;;;;;;;;;5064102;28;20474;-67
2022/10/21 09:52:03;;;;;;;24.20;8.63;;;;;;;;;;5066500;28;20693;-66
2022/10/21 09:54:33;;;;;;;27.80;8.00;;;;;;;;;;5065925;28;20111;-68
2022/10/21 09:57:10;;;;;;;28.60;7.43;;;;;;;;;;5063334;28;20470;-68
2022/10/21 09:59:49;;;;;;;25.63;6.53;;;;;;;;;;5063425;28;20474;-66
2022/10/21 10:02:17;;;;;;;25.30;6.72;;;;;;;;;;5064782;28;20036;-67
2022/10/21 10:04:43;;;;;;;26.85;6.93;;;;;;;;;;5062492;28;20556;-68
2022/10/21 10:07:25;;;;;;;31.58;7.05;;;;;;;;;;5061342;28;20779;-67
2022/10/21 10:09:51;;;;;;;27.70;6.95;;;;;;;;;;5062417;28;20541;-68
2022/10/21 10:12:24;;;;;;;25.52;6.40;;;;;;;;;;5072124;28;20047;-67
2022/10/21 10:14:50;;;;;;;21.67;5.85;;;;;;;;;;5063695;28;20573;-68
2022/10/21 10:17:37;;;;;;;27.33;6.68;;;;;;;;;;5072693;28;20062;-69
2022/10/21 10:20:04;;;;;;;26.05;7.00;;;;;;;;;;5062733;28;20018;-67
2022/10/21 10:22:34;;;;;;;24.15;6.53;;;;;;;;;;5066722;28;20035;-67
2022/10/21 10:25:23;;;;;;;22.52;6.32;;;;;;;;;;5058061;28;20020;-66
2022/10/21 10:27:52;;;;;;;20.05;5.78;;;;;;;;;;5061028;28;20024;-67
2022/10/21 10:30:19;;;;;;;22.77;6.10;;;;;;;;;;5063731;28;20542;-68
2022/10/21 10:32:45;;;;;;;26.25;6.22;;;;;;;;;;5059440;28;20524;-67
2022/10/21 10:35:19;;;;;;;24.67;5.68;;;;;;;;;;5058435;28;20659;-67
2022/10/21 10:37:47;;;;;;;24.83;5.85;;;;;;;;;;5060665;28;20066;-68
2022/10/21 10:40:20;;;;;;;29.67;6.90;;;;;;;;;;5062100;28;20032;-68
2022/10/21 10:42:46;;;;;;;20.92;5.72;;;;;;;;;;5058932;28;20047;-68
2022/10/21 10:45:14;;;;;;;21.08;6.18;;;;;;;;;;5062836;28;20066;-67
2022/10/21 10:47:48;;;;;;;24.50;6.63;;;;;;;;;;5055885;28;20029;-68
2022/10/21 10:50:32;;;;;;;24.35;6.30;;;;;;;;;;5062767;28;20157;-66
2022/10/21 10:53:28;;;;;;;25.88;6.43;;;;;;;;;;5064090;28;20043;-68
2022/10/21 10:55:57;;;;;;;26.20;6.63;;;;;;;;;;5019000;28;20079;-68
2022/10/21 10:58:25;;;;;;;26.73;6.65;;;;;;;;;;5020105;28;20306;-68
2022/10/21 11:00:53;;;;;;;22.52;6.45;;;;;;;;;;5017436;28;20048;-68
2022/10/21 11:03:23;;;;;;;27.77;6.32;;;;;;;;;;5024465;28;20479;-68
2022/10/21 11:05:53;;;;;;;28.35;6.75;;;;;;;;;;5018185;28;20041;-67
2022/10/21 11:08:28;;;;;;;22.08;6.00;;;;;;;;;;5021900;28;20592;-67
2022/10/21 11:10:55;;;;;;;;;;;;;;;;;;5018939;28;20206;-67
2022/10/21 11:13:22;;;;;;;29.02;6.85;;;;;;;;;;5017186;28;19912;-68
2022/10/21 11:16:01;;;;;;;29.73;5.78;;;;;;;;;;5020498;28;20471;-68
2022/10/21 11:18:46;;;;;;;23.77;6.53;;;;;;;;;;5005357;28;20080;-68
2022/10/21 11:21:30;;;;;;;25.73;5.90;;;;;;;;;;5023926;28;20136;-68
2022/10/21 11:24:20;;;;;;;21.13;5.93;;;;;;;;;;5002755;28;20143;-67
2022/10/21 11:26:49;;;;;;;24.92;5.90;;;;;;;;;;5018902;28;20037;-69
2022/10/21 11:29:21;;;;;;;25.90;5.55;;;;;;;;;;5019727;28;20115;-68
2022/10/21 11:32:06;;;;;;;23.65;5.82;;;;;;;;;;5026915;28;20060;-67
2022/10/21 11:34:41;;;;;;;27.10;6.27;;;;;;;;;;5056119;28;20135;-68
2022/10/21 11:37:16;;;;;;;26.33;6.05;;;;;;;;;;5059783;28;20717;-68
2022/10/21 11:39:48;;;;;;;20.88;5.75;;;;;;;;;;5054628;28;20592;-68
2022/10/21 11:42:17;;;;;;;27.88;5.78;;;;;;;;;;5062362;28;20440;-67
2022/10/21 11:45:02;;;;;;;24.35;6.55;;;;;;;;;;5057662;28;20058;-68
2022/10/21 11:47:36;;;;;;;23.50;5.85;;;;;;;;;;5055356;28;20024;-68
2022/10/21 11:50:02;;;;;;;25.27;6.28;;;;;;;;;;5053417;28;20851;-67
2022/10/21 11:52:43;;;;;;;20.35;5.32;;;;;;;;;;5057594;28;20027;-66
2022/10/21 11:55:16;;;;;;;22.75;5.43;;;;;;;;;;5056688;28;20028;-68
2022/10/21 11:57:51;;;;;;;23.80;6.07;;;;;;;;;;5055007;28;20032;-68
2022/10/21 12:00:19;;;;;;;24.60;6.18;;;;;;;;;;5057407;28;20565;-68
2022/10/21 12:02:47;;;;;;;21.20;5.57;;;;;;;;;;5053507;28;20119;-68
2022/10/21 12:05:22;;;;;;;23.98;5.88;;;;;;;;;;5067209;28;20467;-68
2022/10/21 12:07:48;;;;;;;25.15;5.93;;;;;;;;;;5053623;28;20036;-69
2022/10/21 12:10:47;;;;;;;25.98;6.60;;;;;;;;;;5060678;28;20039;-68
2022/10/21 12:13:17;;;;;;;25.52;6.60;;;;;;;;;;4977801;28;20062;-68
2022/10/21 12:15:46;;;;;;;22.98;6.35;;;;;;;;;;4974988;28;20041;-68
2022/10/21 12:18:15;;;;;;;25.13;6.43;;;;;;;;;;4959352;28;20092;-68
2022/10/21 12:20:41;;;;;;;21.60;6.00;;;;;;;;;;4971285;28;20365;-68
2022/10/21 12:23:10;;;;;;;27.80;6.68;;;;;;;;;;4960462;28;20041;-68
2022/10/21 12:25:42;;;;;;;23.92;6.05;;;;;;;;;;4971176;28;20109;-68
2022/10/21 12:28:13;;;;;;;24.38;5.75;;;;;;;;;;4977627;28;20788;-67
2022/10/21 12:30:58;;;;;;;24.42;5.68;;;;;;;;;;4973315;28;20046;-67
2022/10/21 12:33:30;;;;;;;23.33;6.55;;;;;;;;;;4978044;28;20038;-68
2022/10/21 12:36:14;;;;;;;24.50;5.55;;;;;;;;;;4974836;28;20050;-69
2022/10/21 12:38:42;;;;;;;22.92;5.70;;;;;;;;;;4975958;28;20502;-67
2022/10/21 12:41:24;;;;;;;24.95;6.53;;;;;;;;;;4978192;28;20062;-68
2022/10/21 12:43:53;;;;;;;26.23;6.30;;;;;;;;;;4967894;28;20499;-70
2022/10/21 12:46:23;;;;;;;24.83;6.47;;;;;;;;;;4959367;28;20181;-69
2022/10/21 12:48:51;;;;;;;28.25;5.95;;;;;;;;;;5012061;28;20040;-67
2022/10/21 12:51:23;;;;;;;22.65;6.60;;;;;;;;;;5068245;28;20063;-67
2022/10/21 12:53:51;;;;;;;25.42;6.80;;;;;;;;;;5059270;28;20476;-69
2022/10/21 12:56:31;;;;;;;22.45;5.68;;;;;;;;;;5059339;28;20043;-68
2022/10/21 12:59:00;;;;;;;21.88;6.35;;;;;;;;;;5058272;28;21211;-67
2022/10/21 13:01:38;;;;;;;33.13;6.28;;;;;;;;;;5060780;28;20386;-69
2022/10/21 13:04:05;;;;;;;25.17;6.55;;;;;;;;;;5055527;28;20028;-68
2022/10/21 13:06:50;;;;;;;29.33;6.80;;;;;;;;;;5061786;28;20028;-67
2022/10/21 13:09:31;;;;;;;27.60;6.25;;;;;;;;;;5063277;28;20036;-68
2022/10/21 13:12:06;;;;;;;25.45;6.22;;;;;;;;;;5053526;28;20273;-68
2022/10/21 13:14:32;;;;;;;;;;;;;;;;;;5064159;28;20036;-69
2022/10/21 13:17:36;;;;;;;28.30;6.28;;;;;;;;;;5057494;28;19912;-67
2022/10/21 13:20:31;;;;;;;24.92;6.72;;;;;;;;;;4978742;28;20030;-67
2022/10/21 13:23:17;;;;;;;28.15;6.60;;;;;;;;;;4954675;28;21106;-69
2022/10/21 13:25:43;;;;;;;28.30;7.05;;;;;;;;;;4957474;28;20035;-67
2022/10/21 13:28:12;;;;;;;24.98;6.53;;;;;;;;;;4982660;28;20060;-68
2022/10/21 13:30:40;;;;;;;26.77;6.57;;;;;;;;;;4979002;28;20045;-67
2022/10/21 13:33:13;;;;;;;25.17;6.47;;;;;;;;;;4980196;28;20033;-69
2022/10/21 13:35:44;;;;;;;26.00;7.50;;;;;;;;;;4957442;28;20029;-67
2022/10/21 13:38:24;;;;;;;29.52;7.38;;;;;;;;;;4977953;28;20034;-68
2022/10/21 13:40:55;;;;;;;28.52;7.43;;;;;;;;;;4975452;28;20310;-68
2022/10/21 13:43:27;;;;;;;25.92;7.07;;;;;;;;;;4975865;28;20125;-68
2022/10/21 13:45:57;;;;;;;28.33;6.93;;;;;;;;;;4974747;28;20068;-69
2022/10/21 13:48:24;;;;;;;25.75;6.93;;;;;;;;;;4960962;28;20957;-67
2022/10/21 13:50:54;;;;;;;28.00;6.97;;;;;;;;;;4977692;28;20031;-69
2022/10/21 13:53:28;;;;;;;25.88;7.15;;;;;;;;;;4981249;28;20147;-67
2022/10/21 13:55:55;;;;;;;25.52;6.30;;;;;;;;;;5059382;28;20028;-66
2022/10/21 13:58:23;;;;;;;25.13;6.72;;;;;;;;;;5061718;28;20089;-66
2022/10/21 14:00:49;;;;;;;20.83;6.40;;;;;;;;;;5057724;28;20488;-67
2022/10/21 14:03:19;;;;;;;27.75;6.95;;;;;;;;;;5074007;28;20066;-69
2022/10/21 14:05:50;;;;;;;28.13;6.57;;;;;;;;;;5061036;28;20028;-68
2022/10/21 14:08:23;;;;;;;30.52;7.43;;;;;;;;;;5060434;28;20054;-68
2022/10/21 14:10:49;;;;;;;30.80;7.18;;;;;;;;;;5055326;28;20035;-68
2022/10/21 14:13:19;;;;;;;23.67;6.55;;;;;;;;;;5065860;28;20067;-68
2022/10/21 14:15:47;;;;;;;28.88;7.15;;;;;;;;;;5064165;28;20023;-68
2022/10/21 14:18:40;;;;;;;27.42;7.07;;;;;;;;;;5061090;28;20115;-68
2022/10/21 14:21:07;;;;;;;26.70;7.05;;;;;;;;;;5057478;28;20040;-68
2022/10/21 14:23:34;;;;;;;27.23;6.38;;;;;;;;;;5063553;28;20494;-67
2022/10/21 14:26:05;;;;;;;25.20;6.72;;;;;;;;;;5064053;28;20284;-68
2022/10/21 14:28:31;;;;;;;28.85;7.72;;;;;;;;;;5060368;28;20094;-68
2022/10/21 14:31:00;;;;;;;28.88;6.93;;;;;;;;;;5058133;28;20028;-67
2022/10/21 14:33:27;;;;;;;29.02;6.90;;;;;;;;;;5069905;28;20175;-67
2022/10/21 14:36:05;;;;;;;27.52;7.35;;;;;;;;;;5064666;28;20040;-71
2022/10/21 14:38:52;;;;;;;32.00;7.40;;;;;;;;;;5063618;28;20265;-69
2022/10/21 14:41:26;;;;;;;32.47;7.43;;;;;;;;;;5063075;28;20093;-69
2022/10/21 14:43:53;;;;;;;30.42;7.00;;;;;;;;;;5066718;28;20044;-69
2022/10/21 14:46:19;;;;;;;36.20;7.82;;;;;;;;;;5069186;28;20043;-68
2022/10/21 14:48:51;;;;;;;30.65;7.60;;;;;;;;;;5055101;28;20024;-68
2022/10/21 14:51:18;;;;;;;27.30;7.28;;;;;;;;;;5067610;28;20028;-67
2022/10/21 14:53:48;;;;;;;30.48;7.70;;;;;;;;;;5059217;28;20036;-67
2022/10/21 14:56:17;;;;;;;31.33;7.57;;;;;;;;;;5059555;28;20217;-67
2022/10/21 14:58:45;;;;;;;26.08;7.28;;;;;;;;;;5055157;28;20040;-68
2022/10/21 15:01:16;;;;;;;23.98;7.22;;;;;;;;;;5061219;28;20039;-69
2022/10/21 15:03:43;;;;;;;32.20;8.10;;;;;;;;;;5052448;28;20020;-68
2022/10/21 15:06:14;;;;;;;26.02;7.53;;;;;;;;;;5069682;28;20626;-69